Boulder City, Nevada Weather observations

Data are for observation ending at time listed.
 Day   Time    Ave.   Ave.  Ave.  Vector   Max.   Stn.    Total    Solar   Ave.  
  of    of     Air    Rel.  Wind   Wind    Wind   Baro.  Precip.   Rad.    Soil  
Year   Day     Temp.  Hum.  Speed  Dir.    Gust   Pres.                    Temp. 
2026   (PST)    F      %     mph   deg.    mph     mb.     in.     W/m2     F   
------------------------------------------------------------------------------
 125    2:20   57.5    38    1.7   264      4.5   925.0    0.00       0    77.7
 125    2:30   56.9    40    2.5   251      5.2   925.0    0.00       0    77.6
 125    2:40   57.2    39    4.0   230      6.6   925.0    0.00       0    77.5
 125    2:50   57.2    39    4.5   240      6.7   924.9    0.00       0    77.3
 125    3:00   57.1    39    4.2   224      6.2   924.9    0.00       0    77.2
 125    3:10   56.7    40    3.8   237      5.9   924.9    0.00       0    77.1
 125    3:20   56.5    40    4.3   236      6.6   925.0    0.00       0    76.9
 125    3:30   56.7    40    4.4   237      7.2   925.0    0.00       0    76.8
 125    3:40   56.4    41    4.2   240      5.9   925.0    0.00       0    76.7
 125    3:50   56.5    41    4.4   233      6.6   925.0    0.00       0    76.6
 125    4:00   56.3    41    3.3   221      4.7   925.0    0.00       0    76.4
 125    4:10   55.9    42    3.3   232      5.3   925.0    0.00       0    76.3
 125    4:20   56.0    42    3.6   239      5.3   925.0    0.00       0    76.2
 125    4:30   56.1    42    3.8   223      6.4   925.0    0.00       0    76.0
 125    4:40   55.8    42    3.3   224      5.1   925.0    0.00       2    75.9
 125    4:50   55.4    43    2.9   224      4.7   925.1    0.00       6    75.8
 125    5:00   55.2    43    3.4   215      4.6   925.1    0.00      14    75.7
 125    5:10   55.2    43    2.6   218      4.5   925.2    0.00      19    75.6
 125    5:20   55.7    43    2.9   219      4.3   925.2    0.00      27    75.5
 125    5:30   56.8    41    3.0   209      5.0   925.3    0.00      32    75.3
 125    5:40   57.7    40    3.3   206      5.2   925.5    0.00     134    75.2
 125    5:50   58.2    39    3.6   201      6.6   925.7    0.00     175    75.1
 125    6:00   58.7    38    4.9   178      7.3   925.9    0.00     209    74.9
 125    6:10   58.8    38    3.8   216      5.9   926.1    0.00     243    74.8
 125    6:20   58.9    38    3.2   219      5.9   926.3    0.00     279    74.6
 125    6:30   60.0    36    3.7   181      8.2   926.4    0.00     317    74.6
 125    6:40   60.4    36    4.4   182      7.4   926.6    0.00     353    74.4
 125    6:50   60.7    36    4.0   189      8.0   926.7    0.00     387    74.4
 125    7:00   61.1    35    3.9   172      6.6   926.7    0.00     418    74.3
 125    7:10   61.8    34    4.3   162      7.4   926.8    0.00     452    74.2
 125    7:20   62.2    34    3.9   169      8.6   926.8    0.00     483    74.1
 125    7:30   62.8    33    5.1   153      8.1   926.9    0.00     517    74.1
 125    7:40   63.1    32    5.1   172     10.3   926.9    0.00     554    74.1
 125    7:50   63.4    32    3.5   165      6.7   927.0    0.00     595    74.0
 125    8:00   63.5    32    4.3   175      8.8   927.1    0.00     571    74.0
 125    8:10   63.4    32    3.8   184      7.3   927.2    0.00     509    74.0
 125    8:20   63.8    31    4.4   221      9.0   927.2    0.00     693    74.1
 125    8:30   64.3    30    3.9   191      8.0   927.2    0.00     685    74.2
 125    8:40   65.0    30    4.9   172     10.1   927.2    0.00     575    74.2
 125    8:50   64.4    31    3.2   208      7.3   927.3    0.00     635    74.4
 125    9:00   66.2    29    5.1   171     11.1   927.3    0.00     764    74.5
 125    9:10   66.4    29    4.5   168     11.1   927.3    0.00     700    74.6
 125    9:20   65.9    29    3.0   189      7.9   927.3    0.00     550    74.8
 125    9:30   65.8    29    4.3   171      9.0   927.2    0.00     504    74.9
 125    9:40   67.0    28    5.0   107     11.5   927.2    0.00     703    75.1
 125    9:50   67.6    27    5.0   142     10.7   927.2    0.00     606    75.3
 125   10:00   68.2    26    5.3   158     16.1   927.3    0.00     540    75.5
 125   10:10   68.4    26    2.9   261      7.7   927.3    0.00     636    75.7
 125   10:20   68.5    26    4.0   219     10.5   927.3    0.00     919    75.9
 125   10:30   68.4    25    3.9   179     10.0   927.3    0.00     858    76.1
 125   10:40   69.5    24    5.8   145     12.1   927.3    0.00    1025    76.4
 125   10:50   70.0    23    4.3   121     11.4   927.4    0.00     931    76.6
 125   11:00   70.1    24    4.1   159     13.1   927.5    0.00     953    76.9
 125   11:10   70.1    24    4.9   123     10.2   927.5    0.00     731    77.2
 125   11:20   70.0    24    3.4   126     10.2   927.4    0.00     671    77.5
 125   11:30   70.7    23    5.1   170     12.1   927.3    0.00     857    77.8
 125   11:40   70.1    23    3.1   191     10.4   927.2    0.00     648    78.0
 125   11:50   70.5    23    6.4   177     13.2   927.0    0.00     728    78.3
 125   12:00   72.0    23    6.9   120     11.4   926.9    0.00     974    78.6
 125   12:10   71.9    22    6.0   207     11.0   926.9    0.00     944    78.9
 125   12:20   71.3    23    7.3   202     15.0   926.8    0.00     862    79.2
 125   12:30   71.4    24    8.0   184     14.0   926.8    0.00     909    79.5
 125   12:40   71.6    23    4.4   184      8.5   926.7    0.00     978    79.8
 125   12:50   73.4    21    4.9   130      8.8   926.7    0.00     988    80.2
 125   13:00   72.8    22    7.2   153     14.0   926.8    0.00     955    80.4
 125   13:10   73.2    22    4.4   121     11.2   926.7    0.00     872    80.7
 125   13:20   73.5    21    6.2   128     12.6   926.6    0.00     921    81.1
 125   13:30   73.5    21    5.7   167     14.7   926.6    0.00     876    81.4
 125   13:40   73.7    21    4.7   130     10.1   926.6    0.00     642    81.7
 125   13:50   73.7    20    3.5   212      8.0   926.5    0.00     631    82.0
 125   14:00   74.0    20    4.9   151     13.2   926.5    0.00     879    82.3
 125   14:10   74.0    20    3.7   144      9.4   926.4    0.00     844    82.6
 125   14:20   75.1    19    6.7   112     13.7   926.3    0.00     789    82.8
 125   14:30   74.8    18    5.0   104     15.2   926.2    0.00     756    83.1
 125   14:40   75.1    18    4.2   212     11.2   926.2    0.00     446    83.4
 125   14:50   73.1    19    4.0   182      9.0   926.1    0.00     398    83.6
 125   15:00   72.4    20    4.2   215      8.4   925.9    0.00     152    83.8
 125   15:10   73.2    19    3.5   168     12.5   925.6    0.00     579    84.0
 125   15:20   74.0    18    4.3   232      8.2   925.5    0.00     571    84.3
 125   15:30   74.0    18    2.2   129      7.1   925.5    0.00     538    84.5
 125   15:40   74.4    18    4.8   166     13.4   925.5    0.00     443    84.7
 125   15:50   74.6    18    5.6   159     11.2   925.5    0.00     442    84.8
 125   16:00   74.7    18    5.0   142      9.7   925.5    0.00     261    84.9
 125   16:10   73.6    18    5.3   144     10.4   925.4    0.00     246    85.0
 125   16:20   73.3    18    4.7   152     10.4   925.4    0.00     165    85.0
 125   16:30   74.3    18    2.4   328      6.1   925.2    0.00     323    85.1
 125   16:40   74.0    17    4.8   236      8.8   925.3    0.00     288    85.2
 125   16:50   74.3    16    2.8   196      6.9   925.4    0.00     256    85.2
 125   17:00   74.7    16    4.4   167     10.6   925.4    0.00     191    85.2
 125   17:10   74.3    16    4.0   169      9.6   925.4    0.00     197    85.2
 125   17:20   73.3    18    6.8   163     12.9   925.3    0.00     164    85.2
 125   17:30   72.5    18    5.2   177     13.1   925.2    0.00     135    85.2
 125   17:40   72.4    18    5.3   152     10.9   925.2    0.00     108    85.1
 125   17:50   72.3    18    5.7   133     10.5   925.2    0.00      57    85.1
 125   18:00   71.8    19    6.7   158     13.7   925.2    0.00      23    85.1
 125   18:10   71.4    19    6.3   164     12.9   925.3    0.00      17    85.0
 125   18:20   71.0    19    5.9   148     12.8   925.3    0.00      12    85.0
 125   18:30   70.8    19    6.8   165     11.0   925.4    0.00       7    84.9
 125   18:40   70.2    20    6.3   168     12.6   925.5    0.00       3    84.8
 125   18:50   69.9    20    6.6   168     11.7   925.7    0.00       1    84.7
 125   19:00   69.5    20    5.5   173     12.3   925.8    0.00       0    84.6
 125   19:10   69.1    20    5.6   172     10.9   925.9    0.00       0    84.5
 125   19:20   68.8    21    4.4   161     10.2   926.0    0.00       0    84.4
 125   19:30   68.6    21    5.5   158     11.4   926.2    0.00       0    84.3
 125   19:40   68.4    21    6.0   172     15.0   926.3    0.00       0    84.2
 125   19:50   68.2    22    6.9   163     14.2   926.4    0.00       0    84.1
 125   20:00   68.0    22    6.8   163     12.7   926.6    0.00       0    83.9
 125   20:10   67.9    22    6.5   169     12.5   926.8    0.00       0    83.8
 125   20:20   67.6    22    6.5   166     13.4   926.8    0.00       0    83.7
 125   20:30   67.4    23    5.9   172     11.4   926.9    0.00       0    83.5
 125   20:40   67.2    23    5.2   163     11.5   927.0    0.00       0    83.4
 125   20:50   67.0    23    5.7   180     11.5   927.1    0.00       0    83.2
 125   21:00   66.7    23    5.2   183     10.2   927.2    0.00       0    83.0
 125   21:10   66.5    24    3.8   195      8.6   927.3    0.00       0    82.9
 125   21:20   66.3    24    4.7   189      8.2   927.3    0.00       0    82.8
 125   21:30   65.7    24    4.0   224      7.2   927.4    0.00       0    82.6
 125   21:40   65.5    24    4.8   220      9.4   927.4    0.00       0    82.5
 125   21:50   65.4    24    4.6   227      6.9   927.4    0.00       0    82.3
 125   22:00   65.2    24    4.5   220      8.5   927.4    0.00       0    82.2
 125   22:10   64.9    25    4.0   223      6.9   927.5    0.00       0    82.1
 125   22:20   64.7    25    4.4   218      7.1   927.7    0.00       0    81.9
 125   22:30   64.4    25    3.9   217      6.1   927.8    0.00       0    81.7
 125   22:40   63.9    25    3.0   220      4.4   927.9    0.00       0    81.6
 125   22:50   63.6    25    3.5   225      5.6   927.9    0.00       0    81.4
 125   23:00   63.5    26    3.0   199      4.2   928.0    0.00       0    81.3
 125   23:10   62.9    26    2.9   208      4.5   928.0    0.00       0    81.1
 125   23:20   62.9    26    3.2   211      4.3   928.0    0.00       0    81.0
 125   23:30   62.5    26    3.2   207      4.8   927.9    0.00       0    80.8
 125   23:40   62.7    26    3.2   224      5.3   927.9    0.00       0    80.7
 125   23:50   63.0    26    3.1   223      5.0   927.9    0.00       0    80.5
 126    0:00   62.7    26    2.6   200      4.2   927.9    0.00       0    80.4
 126    0:10   62.6    27    3.2   209      5.4   927.9    0.00       0    80.2
 126    0:20   62.7    27    3.7   219      6.6   927.9    0.00       0    80.1
 126    0:30   62.5    28    4.1   216      6.9   927.9    0.00       0    80.0
 126    0:40   62.4    28    3.3   214      5.0   927.8    0.00       0    79.8
 126    0:50   62.3    29    3.8   217      7.6   927.8    0.00       0    79.7
 126    1:00   62.2    30    4.1   215      7.2   927.8    0.00       0    79.5
 126    1:10   62.1    31    5.0   217      8.3   927.9    0.00       0    79.4
 126    1:20   61.8    32    4.7   196     10.2   927.9    0.00       0    79.2
 126    1:30   61.4    33    3.5   187      7.5   928.0    0.00       0    79.1
 126    1:40   60.4    33    3.0   208      4.1   928.1    0.00       0    79.0
 126    1:50   59.9    33    3.0   186      4.7   928.1    0.00       0    78.8
 126    2:00   60.3    32    4.6   184      7.3   928.1    0.00       0    78.7
 126    2:10   60.7    32    3.6   210      5.3   928.1    0.00       0    78.5

Return to Boulder City, Nevada graphs page.


Western Regional Climate Center,wrcc@dri.edu